sensor_id;sensor_type;location;lat;lon;timestamp;pressure;altitude;pressure_sealevel;temperature;humidity
22283;BME280;11310;51.528;21.204;2022-12-05T00:00:38;100877.63;;;1.47;100.00
22283;BME280;11310;51.528;21.204;2022-12-05T00:03:08;100876.75;;;1.43;100.00
22283;BME280;11310;51.528;21.204;2022-12-05T00:05:38;100871.56;;;1.40;100.00
22283;BME280;11310;51.528;21.204;2022-12-05T00:08:07;100867.25;;;1.38;100.00
22283;BME280;11310;51.528;21.204;2022-12-05T00:10:36;100877.59;;;1.38;100.00
22283;BME280;11310;51.528;21.204;2022-12-05T00:13:07;100877.59;;;1.38;100.00
22283;BME280;11310;51.528;21.204;2022-12-05T00:15:37;100882.75;;;1.38;100.00
22283;BME280;11310;51.528;21.204;2022-12-05T00:18:07;100886.22;;;1.37;100.00
22283;BME280;11310;51.528;21.204;2022-12-05T00:20:36;100879.31;;;1.36;100.00
22283;BME280;11310;51.528;21.204;2022-12-05T00:23:05;100886.22;;;1.37;100.00
22283;BME280;11310;51.528;21.204;2022-12-05T00:25:35;100882.75;;;1.38;100.00
22283;BME280;11310;51.528;21.204;2022-12-05T00:28:05;100885.34;;;1.39;100.00
22283;BME280;11310;51.528;21.204;2022-12-05T00:30:34;100877.59;;;1.38;100.00
22283;BME280;11310;51.528;21.204;2022-12-05T00:33:04;100876.72;;;1.36;100.00
22283;BME280;11310;51.528;21.204;2022-12-05T00:35:33;100875.88;;;1.37;100.00
22283;BME280;11310;51.528;21.204;2022-12-05T00:38:03;100877.59;;;1.38;100.00
22283;BME280;11310;51.528;21.204;2022-12-05T00:40:34;100869.81;;;1.36;100.00
22283;BME280;11310;51.528;21.204;2022-12-05T00:43:03;100865.53;;;1.37;100.00
22283;BME280;11310;51.528;21.204;2022-12-05T00:45:32;100867.25;;;1.38;100.00
22283;BME280;11310;51.528;21.204;2022-12-05T00:48:04;100864.66;;;1.36;100.00
22283;BME280;11310;51.528;21.204;2022-12-05T00:50:33;100859.47;;;1.36;100.00
22283;BME280;11310;51.528;21.204;2022-12-05T00:53:01;100860.34;;;1.35;100.00
22283;BME280;11310;51.528;21.204;2022-12-05T00:55:30;100863.81;;;1.36;100.00
22283;BME280;11310;51.528;21.204;2022-12-05T00:57:59;100862.91;;;1.34;100.00
22283;BME280;11310;51.528;21.204;2022-12-05T01:00:28;100869.81;;;1.36;100.00
22283;BME280;11310;51.528;21.204;2022-12-05T01:02:57;100864.66;;;1.36;100.00
22283;BME280;11310;51.528;21.204;2022-12-05T01:05:27;100864.66;;;1.33;100.00
22283;BME280;11310;51.528;21.204;2022-12-05T01:07:56;100860.34;;;1.34;100.00
22283;BME280;11310;51.528;21.204;2022-12-05T01:10:25;100867.22;;;1.35;100.00
22283;BME280;11310;51.528;21.204;2022-12-05T01:12:54;100865.53;;;1.35;100.00
22283;BME280;11310;51.528;21.204;2022-12-05T01:15:23;100858.63;;;1.33;100.00
22283;BME280;11310;51.528;21.204;2022-12-05T01:17:52;100855.19;;;1.31;100.00
22283;BME280;11310;51.528;21.204;2022-12-05T01:20:20;100851.72;;;1.30;100.00
22283;BME280;11310;51.528;21.204;2022-12-05T01:22:50;100844.81;;;1.28;100.00
22283;BME280;11310;51.528;21.204;2022-12-05T01:25:19;100856.00;;;1.27;100.00
22283;BME280;11310;51.528;21.204;2022-12-05T01:27:47;100863.75;;;1.25;100.00
22283;BME280;11310;51.528;21.204;2022-12-05T01:30:16;100865.50;;;1.29;100.00
22283;BME280;11310;51.528;21.204;2022-12-05T01:32:46;100863.75;;;1.30;100.00
22283;BME280;11310;51.528;21.204;2022-12-05T01:35:14;100858.59;;;1.27;100.00
22283;BME280;11310;51.528;21.204;2022-12-05T01:37:43;100856.88;;;1.24;100.00
22283;BME280;11310;51.528;21.204;2022-12-05T01:40:13;100849.94;;;1.23;100.00
22283;BME280;11310;51.528;21.204;2022-12-05T01:42:42;100853.41;;;1.25;100.00
22283;BME280;11310;51.528;21.204;2022-12-05T01:45:14;100856.84;;;1.26;100.00
22283;BME280;11310;51.528;21.204;2022-12-05T01:47:44;100846.53;;;1.29;100.00
22283;BME280;11310;51.528;21.204;2022-12-05T01:50:12;100855.19;;;1.31;100.00
22283;BME280;11310;51.528;21.204;2022-12-05T01:52:41;100850.84;;;1.31;100.00
22283;BME280;11310;51.528;21.204;2022-12-05T01:55:15;100843.97;;;1.30;100.00
22283;BME280;11310;51.528;21.204;2022-12-05T01:57:46;100846.53;;;1.29;100.00
22283;BME280;11310;51.528;21.204;2022-12-05T02:00:17;100841.34;;;1.26;100.00
22283;BME280;11310;51.528;21.204;2022-12-05T02:02:49;100845.69;;;1.27;100.00
22283;BME280;11310;51.528;21.204;2022-12-05T02:05:21;100846.53;;;1.29;100.00
22283;BME280;11310;51.528;21.204;2022-12-05T02:07:50;100835.34;;;1.28;100.00
22283;BME280;11310;51.528;21.204;2022-12-05T02:10:21;100838.75;;;1.26;100.00
22283;BME280;11310;51.528;21.204;2022-12-05T02:12:50;100839.63;;;1.25;100.00
22283;BME280;11310;51.528;21.204;2022-12-05T02:15:28;100830.13;;;1.22;100.00
22283;BME280;11310;51.528;21.204;2022-12-05T02:18:07;100824.13;;;1.22;100.00
22283;BME280;11310;51.528;21.204;2022-12-05T02:20:46;100820.69;;;1.23;100.00
22283;BME280;11310;51.528;21.204;2022-12-05T02:32:27;100789.69;;;1.23;100.00
22283;BME280;11310;51.528;21.204;2022-12-05T02:35:05;100779.31;;;1.20;100.00
22283;BME280;11310;51.528;21.204;2022-12-05T02:37:39;100787.06;;;1.18;100.00
22283;BME280;11310;51.528;21.204;2022-12-05T02:40:13;100786.22;;;1.19;100.00
22283;BME280;11310;51.528;21.204;2022-12-05T02:42:50;100781.03;;;1.15;100.00
22283;BME280;11310;51.528;21.204;2022-12-05T02:45:23;100788.78;;;1.15;100.00
22283;BME280;11310;51.528;21.204;2022-12-05T02:47:56;100781.88;;;1.14;100.00
22283;BME280;11310;51.528;21.204;2022-12-05T02:50:29;100786.22;;;1.18;100.00
22283;BME280;11310;51.528;21.204;2022-12-05T02:53:03;100781.03;;;1.18;100.00
22283;BME280;11310;51.528;21.204;2022-12-05T02:55:34;100777.56;;;1.16;100.00
22283;BME280;11310;51.528;21.204;2022-12-05T02:58:10;100780.16;;;1.14;100.00
22283;BME280;11310;51.528;21.204;2022-12-05T03:00:43;100775.88;;;1.18;100.00
22283;BME280;11310;51.528;21.204;2022-12-05T03:03:17;100792.22;;;1.18;100.00
22283;BME280;11310;51.528;21.204;2022-12-05T03:05:50;100782.75;;;1.19;100.00
22283;BME280;11310;51.528;21.204;2022-12-05T03:08:25;100793.97;;;1.19;100.00
22283;BME280;11310;51.528;21.204;2022-12-05T03:10:58;100783.63;;;1.21;100.00
22283;BME280;11310;51.528;21.204;2022-12-05T03:13:34;100782.75;;;1.23;100.00
22283;BME280;11310;51.528;21.204;2022-12-05T03:16:07;100773.31;;;1.24;100.00
22283;BME280;11310;51.528;21.204;2022-12-05T03:18:43;100781.03;;;1.21;100.00
22283;BME280;11310;51.528;21.204;2022-12-05T03:21:21;100777.59;;;1.19;100.00
22283;BME280;11310;51.528;21.204;2022-12-05T03:23:56;100786.22;;;1.22;100.00
22283;BME280;11310;51.528;21.204;2022-12-05T03:26:35;100780.19;;;1.23;100.00
22283;BME280;11310;51.528;21.204;2022-12-05T03:29:15;100784.50;;;1.26;100.00
22283;BME280;11310;51.528;21.204;2022-12-05T03:31:55;100776.75;;;1.27;100.00
22283;BME280;11310;51.528;21.204;2022-12-05T03:34:41;100780.22;;;1.29;100.00
22283;BME280;11310;51.528;21.204;2022-12-05T03:37:14;100780.22;;;1.28;100.00
22283;BME280;11310;51.528;21.204;2022-12-05T03:39:49;100768.16;;;1.28;100.00
22283;BME280;11310;51.528;21.204;2022-12-05T03:42:28;100779.38;;;1.32;100.00
22283;BME280;11310;51.528;21.204;2022-12-05T03:45:02;100770.75;;;1.33;100.00
22283;BME280;11310;51.528;21.204;2022-12-05T03:47:40;100773.31;;;1.31;100.00
22283;BME280;11310;51.528;21.204;2022-12-05T03:50:18;100765.56;;;1.27;100.00
22283;BME280;11310;51.528;21.204;2022-12-05T03:52:53;100769.00;;;1.29;100.00
22283;BME280;11310;51.528;21.204;2022-12-05T03:55:44;100777.66;;;1.31;100.00
22283;BME280;11310;51.528;21.204;2022-12-05T03:58:19;100772.47;;;1.31;100.00
22283;BME280;11310;51.528;21.204;2022-12-05T04:00:52;100763.84;;;1.30;100.00
22283;BME280;11310;51.528;21.204;2022-12-05T04:03:24;100781.94;;;1.30;100.00
22283;BME280;11310;51.528;21.204;2022-12-05T04:05:58;100786.25;;;1.30;100.00
22283;BME280;11310;51.528;21.204;2022-12-05T04:08:32;100776.75;;;1.29;100.00
22283;BME280;11310;51.528;21.204;2022-12-05T04:11:07;100771.59;;;1.29;100.00
22283;BME280;11310;51.528;21.204;2022-12-05T04:13:40;100773.31;;;1.31;100.00
22283;BME280;11310;51.528;21.204;2022-12-05T04:16:14;100761.25;;;1.29;100.00
22283;BME280;11310;51.528;21.204;2022-12-05T04:19:04;100771.59;;;1.30;100.00
22283;BME280;11310;51.528;21.204;2022-12-05T04:21:40;100766.44;;;1.32;100.00
22283;BME280;11310;51.528;21.204;2022-12-05T04:24:13;100762.16;;;1.31;100.00
22283;BME280;11310;51.528;21.204;2022-12-05T04:27:11;100763.88;;;1.32;100.00
22283;BME280;11310;51.528;21.204;2022-12-05T04:29:58;100769.03;;;1.30;100.00
22283;BME280;11310;51.528;21.204;2022-12-05T04:32:34;100763.88;;;1.32;100.00
22283;BME280;11310;51.528;21.204;2022-12-05T04:35:10;100761.28;;;1.33;100.00
22283;BME280;11310;51.528;21.204;2022-12-05T04:37:46;100758.69;;;1.35;100.00
22283;BME280;11310;51.528;21.204;2022-12-05T04:40:20;100759.56;;;1.34;100.00
22283;BME280;11310;51.528;21.204;2022-12-05T04:42:53;100756.97;;;1.31;100.00
22283;BME280;11310;51.528;21.204;2022-12-05T04:45:24;100756.13;;;1.33;100.00
22283;BME280;11310;51.528;21.204;2022-12-05T04:47:57;100757.84;;;1.34;100.00
22283;BME280;11310;51.528;21.204;2022-12-05T04:50:31;100749.22;;;1.35;100.00
22283;BME280;11310;51.528;21.204;2022-12-05T04:53:02;100746.66;;;1.37;100.00
22283;BME280;11310;51.528;21.204;2022-12-05T04:55:33;100749.22;;;1.35;100.00
22283;BME280;11310;51.528;21.204;2022-12-05T04:58:07;100751.78;;;1.34;100.00
22283;BME280;11310;51.528;21.204;2022-12-05T05:00:45;100744.91;;;1.33;100.00
22283;BME280;11310;51.528;21.204;2022-12-05T05:03:18;100755.25;;;1.34;100.00
22283;BME280;11310;51.528;21.204;2022-12-05T05:05:50;100745.78;;;1.36;100.00
22283;BME280;11310;51.528;21.204;2022-12-05T05:08:23;100754.38;;;1.35;100.00
22283;BME280;11310;51.528;21.204;2022-12-05T05:11:03;100749.22;;;1.35;100.00
22283;BME280;11310;51.528;21.204;2022-12-05T05:13:33;100756.09;;;1.36;100.00
22283;BME280;11310;51.528;21.204;2022-12-05T05:16:03;100749.22;;;1.35;100.00
22283;BME280;11310;51.528;21.204;2022-12-05T05:18:32;100746.63;;;1.34;100.00
22283;BME280;11310;51.528;21.204;2022-12-05T05:21:01;100748.34;;;1.35;100.00
22283;BME280;11310;51.528;21.204;2022-12-05T05:23:31;100762.16;;;1.37;100.00
22283;BME280;11310;51.528;21.204;2022-12-05T05:26:03;100756.97;;;1.37;100.00
22283;BME280;11310;51.528;21.204;2022-12-05T05:28:32;100765.59;;;1.39;100.00
22283;BME280;11310;51.528;21.204;2022-12-05T05:31:02;100750.09;;;1.40;100.00
22283;BME280;11310;51.528;21.204;2022-12-05T05:33:31;100746.66;;;1.43;100.00
22283;BME280;11310;51.528;21.204;2022-12-05T05:36:02;100749.25;;;1.44;100.00
22283;BME280;11310;51.528;21.204;2022-12-05T05:38:35;100750.94;;;1.44;100.00
22283;BME280;11310;51.528;21.204;2022-12-05T05:41:10;100751.81;;;1.43;100.00
22283;BME280;11310;51.528;21.204;2022-12-05T05:43:40;100758.72;;;1.45;100.00
22283;BME280;11310;51.528;21.204;2022-12-05T05:46:09;100760.44;;;1.43;100.00
22283;BME280;11310;51.528;21.204;2022-12-05T05:48:38;100762.16;;;1.43;100.00
22283;BME280;11310;51.528;21.204;2022-12-05T05:51:10;100753.56;;;1.42;100.00
22283;BME280;11310;51.528;21.204;2022-12-05T05:53:40;100765.63;;;1.45;100.00
22283;BME280;11310;51.528;21.204;2022-12-05T05:56:11;100770.78;;;1.45;100.00
22283;BME280;11310;51.528;21.204;2022-12-05T05:58:47;100767.34;;;1.46;100.00
22283;BME280;11310;51.528;21.204;2022-12-05T06:01:18;100771.63;;;1.44;100.00
22283;BME280;11310;51.528;21.204;2022-12-05T06:03:47;100770.78;;;1.45;100.00
22283;BME280;11310;51.528;21.204;2022-12-05T06:06:22;100772.50;;;1.44;100.00
22283;BME280;11310;51.528;21.204;2022-12-05T06:08:53;100767.34;;;1.46;100.00
22283;BME280;11310;51.528;21.204;2022-12-05T06:11:23;100771.63;;;1.44;100.00
22283;BME280;11310;51.528;21.204;2022-12-05T06:13:55;100763.03;;;1.45;100.00
22283;BME280;11310;51.528;21.204;2022-12-05T06:16:24;100769.91;;;1.44;100.00
22283;BME280;11310;51.528;21.204;2022-12-05T06:18:53;100765.63;;;1.45;100.00
22283;BME280;11310;51.528;21.204;2022-12-05T06:21:24;100775.09;;;1.46;100.00
22283;BME280;11310;51.528;21.204;2022-12-05T06:23:56;100763.88;;;1.44;100.00
22283;BME280;11310;51.528;21.204;2022-12-05T06:26:25;100772.50;;;1.50;100.00
22283;BME280;11310;51.528;21.204;2022-12-05T06:28:54;100770.81;;;1.51;100.00
22283;BME280;11310;51.528;21.204;2022-12-05T06:31:25;100765.63;;;1.48;100.00
22283;BME280;11310;51.528;21.204;2022-12-05T06:34:00;100778.53;;;1.48;100.00
22283;BME280;11310;51.528;21.204;2022-12-05T06:36:30;100767.34;;;1.46;100.00
22283;BME280;11310;51.528;21.204;2022-12-05T06:39:01;100772.50;;;1.44;100.00
22283;BME280;11310;51.528;21.204;2022-12-05T06:41:30;100772.50;;;1.46;100.00
22283;BME280;11310;51.528;21.204;2022-12-05T06:44:00;100775.97;;;1.45;100.00
22283;BME280;11310;51.528;21.204;2022-12-05T06:46:35;100772.50;;;1.49;100.00
22283;BME280;11310;51.528;21.204;2022-12-05T06:49:18;100775.97;;;1.51;100.00
22283;BME280;11310;51.528;21.204;2022-12-05T06:51:55;100782.00;;;1.54;100.00
22283;BME280;11310;51.528;21.204;2022-12-05T06:54:27;100781.13;;;1.51;100.00
22283;BME280;11310;51.528;21.204;2022-12-05T06:56:59;100769.94;;;1.47;100.00
22283;BME280;11310;51.528;21.204;2022-12-05T06:59:30;100779.41;;;1.50;100.00
22283;BME280;11310;51.528;21.204;2022-12-05T07:02:00;100770.78;;;1.49;100.00
22283;BME280;11310;51.528;21.204;2022-12-05T07:04:28;100765.63;;;1.48;100.00
22283;BME280;11310;51.528;21.204;2022-12-05T07:06:57;100768.22;;;1.52;100.00
22283;BME280;11310;51.528;21.204;2022-12-05T07:09:29;100758.72;;;1.53;100.00
22283;BME280;11310;51.528;21.204;2022-12-05T07:12:15;100758.75;;;1.56;100.00
22283;BME280;11310;51.528;21.204;2022-12-05T07:14:44;100763.06;;;1.54;100.00
22283;BME280;11310;51.528;21.204;2022-12-05T07:17:16;100757.03;;;1.55;100.00
22283;BME280;11310;51.528;21.204;2022-12-05T07:19:47;100769.94;;;1.58;100.00
22283;BME280;11310;51.528;21.204;2022-12-05T07:22:18;100752.72;;;1.61;100.00
22283;BME280;11310;51.528;21.204;2022-12-05T07:24:50;100750.13;;;1.66;100.00
22283;BME280;11310;51.528;21.204;2022-12-05T07:27:19;100744.97;;;1.70;100.00
22283;BME280;11310;51.528;21.204;2022-12-05T07:29:56;100749.28;;;1.68;100.00
22283;BME280;11310;51.528;21.204;2022-12-05T07:32:31;100750.13;;;1.66;100.00
22283;BME280;11310;51.528;21.204;2022-12-05T07:35:02;100763.06;;;1.67;100.00
22283;BME280;11310;51.528;21.204;2022-12-05T07:37:37;100751.84;;;1.67;100.00
22283;BME280;11310;51.528;21.204;2022-12-05T07:40:08;100746.69;;;1.70;100.00
22283;BME280;11310;51.528;21.204;2022-12-05T07:42:37;100753.59;;;1.71;100.00
22283;BME280;11310;51.528;21.204;2022-12-05T07:45:07;100751.88;;;1.70;100.00
22283;BME280;11310;51.528;21.204;2022-12-05T07:47:41;100764.81;;;1.73;100.00
22283;BME280;11310;51.528;21.204;2022-12-05T07:50:13;100756.19;;;1.74;100.00
22283;BME280;11310;51.528;21.204;2022-12-05T07:52:44;100756.16;;;1.69;100.00
22283;BME280;11310;51.528;21.204;2022-12-05T07:55:15;100755.31;;;1.75;100.00
22283;BME280;11310;51.528;21.204;2022-12-05T07:57:47;100753.59;;;1.80;100.00
22283;BME280;11310;51.528;21.204;2022-12-05T08:00:20;100749.31;;;1.82;100.00
22283;BME280;11310;51.528;21.204;2022-12-05T08:02:49;100735.50;;;1.80;100.00
22283;BME280;11310;51.528;21.204;2022-12-05T08:05:17;100734.63;;;1.81;100.00
22283;BME280;11310;51.528;21.204;2022-12-05T08:07:46;100739.78;;;1.81;100.00
22283;BME280;11310;51.528;21.204;2022-12-05T08:10:20;100741.53;;;1.82;100.00
22283;BME280;11310;51.528;21.204;2022-12-05T08:12:49;100740.66;;;1.83;100.00
22283;BME280;11310;51.528;21.204;2022-12-05T08:15:20;100741.53;;;1.85;100.00
22283;BME280;11310;51.528;21.204;2022-12-05T08:17:49;100739.81;;;1.87;100.00
22283;BME280;11310;51.528;21.204;2022-12-05T08:20:21;100745.84;;;1.86;100.00
22283;BME280;11310;51.528;21.204;2022-12-05T08:22:55;100746.72;;;1.91;100.00
22283;BME280;11310;51.528;21.204;2022-12-05T08:25:27;100751.88;;;1.94;100.00
22283;BME280;11310;51.528;21.204;2022-12-05T08:27:56;100751.03;;;1.93;100.00
22283;BME280;11310;51.528;21.204;2022-12-05T08:30:26;100751.88;;;1.94;100.00
22283;BME280;11310;51.528;21.204;2022-12-05T08:32:57;100743.25;;;1.92;100.00
22283;BME280;11310;51.528;21.204;2022-12-05T08:35:26;100751.00;;;1.98;100.00
22283;BME280;11310;51.528;21.204;2022-12-05T08:37:55;100744.13;;;2.00;100.00
22283;BME280;11310;51.528;21.204;2022-12-05T08:40:24;100751.88;;;2.03;100.00
22283;BME280;11310;51.528;21.204;2022-12-05T08:42:54;100749.28;;;2.06;100.00
22283;BME280;11310;51.528;21.204;2022-12-05T08:45:23;100742.41;;;2.06;100.00
22283;BME280;11310;51.528;21.204;2022-12-05T08:47:52;100748.44;;;2.10;100.00
22283;BME280;11310;51.528;21.204;2022-12-05T08:50:21;100749.28;;;2.12;100.00
22283;BME280;11310;51.528;21.204;2022-12-05T08:52:53;100743.25;;;2.13;100.00
22283;BME280;11310;51.528;21.204;2022-12-05T08:55:22;100746.72;;;2.16;100.00
22283;BME280;11310;51.528;21.204;2022-12-05T08:57:51;100743.25;;;2.20;100.00
22283;BME280;11310;51.528;21.204;2022-12-05T09:00:22;100739.78;;;2.18;100.00
22283;BME280;11310;51.528;21.204;2022-12-05T09:02:50;100730.28;;;2.22;100.00
22283;BME280;11310;51.528;21.204;2022-12-05T09:05:22;100735.47;;;2.23;100.00
22283;BME280;11310;51.528;21.204;2022-12-05T09:07:55;100721.69;;;2.23;100.00
22283;BME280;11310;51.528;21.204;2022-12-05T09:10:28;100729.44;;;2.18;100.00
22283;BME280;11310;51.528;21.204;2022-12-05T09:12:58;100729.44;;;2.17;100.00
22283;BME280;11310;51.528;21.204;2022-12-05T09:15:28;100723.41;;;2.18;100.00
22283;BME280;11310;51.528;21.204;2022-12-05T09:17:57;100724.28;;;2.21;100.00
22283;BME280;11310;51.528;21.204;2022-12-05T09:20:26;100717.38;;;2.20;100.00
22283;BME280;11310;51.528;21.204;2022-12-05T09:22:56;100720.84;;;2.18;100.00
22283;BME280;11310;51.528;21.204;2022-12-05T09:25:25;100719.09;;;2.20;100.00
22283;BME280;11310;51.528;21.204;2022-12-05T09:27:58;100722.53;;;2.28;100.00
22283;BME280;11310;51.528;21.204;2022-12-05T09:30:28;100713.91;;;2.29;100.00
22283;BME280;11310;51.528;21.204;2022-12-05T09:33:00;100719.06;;;2.29;100.00
22283;BME280;11310;51.528;21.204;2022-12-05T09:35:28;100713.03;;;2.30;100.00
22283;BME280;11310;51.528;21.204;2022-12-05T09:37:57;100704.41;;;2.31;100.00
22283;BME280;11310;51.528;21.204;2022-12-05T09:40:31;100705.28;;;2.33;100.00
22283;BME280;11310;51.528;21.204;2022-12-05T09:43:04;100698.38;;;2.32;100.00
22283;BME280;11310;51.528;21.204;2022-12-05T09:45:37;100702.69;;;2.33;100.00
22283;BME280;11310;51.528;21.204;2022-12-05T09:48:13;100697.50;;;2.36;100.00
22283;BME280;11310;51.528;21.204;2022-12-05T09:50:47;100694.06;;;2.38;100.00
22283;BME280;11310;51.528;21.204;2022-12-05T09:53:25;100687.13;;;2.40;100.00
22283;BME280;11310;51.528;21.204;2022-12-05T09:56:00;100693.19;;;2.41;100.00
22283;BME280;11310;51.528;21.204;2022-12-05T09:58:39;100687.13;;;2.40;100.00
22283;BME280;11310;51.528;21.204;2022-12-05T10:01:24;100681.06;;;2.43;100.00
22283;BME280;11310;51.528;21.204;2022-12-05T10:04:15;100687.09;;;2.45;100.00
22283;BME280;11310;51.528;21.204;2022-12-05T10:06:57;100687.09;;;2.46;100.00
22283;BME280;11310;51.528;21.204;2022-12-05T10:09:50;100680.22;;;2.44;100.00
22283;BME280;11310;51.528;21.204;2022-12-05T10:12:37;100684.53;;;2.42;100.00
22283;BME280;11310;51.528;21.204;2022-12-05T10:15:14;100682.81;;;2.39;100.00
22283;BME280;11310;51.528;21.204;2022-12-05T10:17:51;100679.38;;;2.42;100.00
22283;BME280;11310;51.528;21.204;2022-12-05T10:20:27;100681.06;;;2.43;100.00
22283;BME280;11310;51.528;21.204;2022-12-05T10:23:05;100670.72;;;2.43;100.00
22283;BME280;11310;51.528;21.204;2022-12-05T10:25:58;100675.03;;;2.45;100.00
22283;BME280;11310;51.528;21.204;2022-12-05T10:28:33;100671.56;;;2.48;100.00
22283;BME280;11310;51.528;21.204;2022-12-05T10:31:07;100665.53;;;2.46;100.00
22283;BME280;11310;51.528;21.204;2022-12-05T10:33:42;100665.50;;;2.49;100.00
22283;BME280;11310;51.528;21.204;2022-12-05T10:36:14;100659.47;;;2.51;100.00
22283;BME280;11310;51.528;21.204;2022-12-05T10:38:43;100649.97;;;2.56;100.00
22283;BME280;11310;51.528;21.204;2022-12-05T10:41:15;100649.94;;;2.64;100.00
22283;BME280;11310;51.528;21.204;2022-12-05T10:43:45;100635.25;;;2.66;100.00
22283;BME280;11310;51.528;21.204;2022-12-05T10:46:15;100643.88;;;2.68;100.00
22283;BME280;11310;51.528;21.204;2022-12-05T10:48:52;100632.66;;;2.70;100.00
22283;BME280;11310;51.528;21.204;2022-12-05T10:51:25;100626.59;;;2.71;100.00
22283;BME280;11310;51.528;21.204;2022-12-05T10:54:04;100626.59;;;2.71;100.00
22283;BME280;11310;51.528;21.204;2022-12-05T10:56:42;100636.03;;;2.80;100.00
22283;BME280;11310;51.528;21.204;2022-12-05T10:59:13;100625.66;;;2.83;100.00
22283;BME280;11310;51.528;21.204;2022-12-05T11:01:48;100614.41;;;2.88;100.00
22283;BME280;11310;51.528;21.204;2022-12-05T11:04:26;100616.97;;;2.91;100.00
22283;BME280;11310;51.528;21.204;2022-12-05T11:06:59;100609.25;;;2.88;100.00
22283;BME280;11310;51.528;21.204;2022-12-05T11:09:32;100615.25;;;2.89;100.00
22283;BME280;11310;51.528;21.204;2022-12-05T11:12:13;100608.38;;;2.88;100.00
22283;BME280;11310;51.528;21.204;2022-12-05T11:14:58;100614.38;;;2.91;100.00
22283;BME280;11310;51.528;21.204;2022-12-05T11:17:30;100608.34;;;2.91;100.00
22283;BME280;11310;51.528;21.204;2022-12-05T11:20:02;100607.47;;;2.92;100.00
22283;BME280;11310;51.528;21.204;2022-12-05T11:23:19;100604.91;;;2.89;100.00
22283;BME280;11310;51.528;21.204;2022-12-05T11:25:50;100607.50;;;2.90;100.00
22283;BME280;11310;51.528;21.204;2022-12-05T11:28:31;100608.34;;;2.91;100.00
22283;BME280;11310;51.528;21.204;2022-12-05T11:31:18;100604.84;;;2.95;100.00
22283;BME280;11310;51.528;21.204;2022-12-05T11:34:00;100597.13;;;2.90;100.00
22283;BME280;11310;51.528;21.204;2022-12-05T11:36:36;100599.66;;;2.98;100.00
22283;BME280;11310;51.528;21.204;2022-12-05T11:39:11;100603.13;;;2.97;100.00
22283;BME280;11310;51.528;21.204;2022-12-05T11:42:18;100602.25;;;2.99;100.00
22283;BME280;11310;51.528;21.204;2022-12-05T11:45:14;100590.19;;;2.95;100.00
22283;BME280;11310;51.528;21.204;2022-12-05T11:48:05;100597.06;;;2.95;100.00
22283;BME280;11310;51.528;21.204;2022-12-05T11:50:48;100590.19;;;2.94;100.00
22283;BME280;11310;51.528;21.204;2022-12-05T11:53:38;100591.94;;;2.93;100.00
22283;BME280;11310;51.528;21.204;2022-12-05T11:56:19;100590.22;;;2.91;100.00
22283;BME280;11310;51.528;21.204;2022-12-05T11:58:58;100591.06;;;2.94;100.00
22283;BME280;11310;51.528;21.204;2022-12-05T12:01:47;100585.00;;;2.97;100.00
22283;BME280;11310;51.528;21.204;2022-12-05T12:04:33;100578.91;;;3.01;100.00
22283;BME280;11310;51.528;21.204;2022-12-05T12:07:16;100582.34;;;3.03;100.00
22283;BME280;11310;51.528;21.204;2022-12-05T12:10:00;100579.75;;;3.07;100.00
22283;BME280;11310;51.528;21.204;2022-12-05T12:12:42;100584.00;;;3.13;100.00
22283;BME280;11310;51.528;21.204;2022-12-05T12:15:27;100581.41;;;3.13;100.00
22283;BME280;11310;51.528;21.204;2022-12-05T12:18:11;100583.09;;;3.18;100.00
22283;BME280;11310;51.528;21.204;2022-12-05T12:20:55;100579.63;;;3.21;100.00
22283;BME280;11310;51.528;21.204;2022-12-05T12:23:39;100574.41;;;3.25;100.00
22283;BME280;11310;51.528;21.204;2022-12-05T12:26:14;100570.06;;;3.26;100.00
22283;BME280;11310;51.528;21.204;2022-12-05T12:28:54;100570.94;;;3.26;100.00
22283;BME280;11310;51.528;21.204;2022-12-05T12:31:53;100571.78;;;3.27;100.00
22283;BME280;11310;51.528;21.204;2022-12-05T12:37:27;100556.28;;;3.24;100.00
22283;BME280;11310;51.528;21.204;2022-12-05T12:40:12;100558.06;;;3.19;100.00
22283;BME280;11310;51.528;21.204;2022-12-05T12:42:56;100560.66;;;3.17;100.00
22283;BME280;11310;51.528;21.204;2022-12-05T12:45:44;100554.59;;;3.15;100.00
22283;BME280;11310;51.528;21.204;2022-12-05T12:48:33;100546.81;;;3.15;100.00
22283;BME280;11310;51.528;21.204;2022-12-05T12:51:04;100539.94;;;3.16;100.00
22283;BME280;11310;51.528;21.204;2022-12-05T12:56:31;100543.41;;;3.15;100.00
22283;BME280;11310;51.528;21.204;2022-12-05T12:59:23;100536.44;;;3.18;100.00
22283;BME280;11310;51.528;21.204;2022-12-05T13:01:57;100532.13;;;3.19;100.00
22283;BME280;11310;51.528;21.204;2022-12-05T13:04:33;100526.94;;;3.20;100.00
22283;BME280;11310;51.528;21.204;2022-12-05T13:07:10;100542.47;;;3.22;100.00
22283;BME280;11310;51.528;21.204;2022-12-05T13:09:44;100533.84;;;3.23;100.00
22283;BME280;11310;51.528;21.204;2022-12-05T13:12:23;100542.47;;;3.22;100.00
22283;BME280;11310;51.528;21.204;2022-12-05T13:14:58;100540.75;;;3.21;100.00
22283;BME280;11310;51.528;21.204;2022-12-05T13:17:33;100540.75;;;3.19;100.00
22283;BME280;11310;51.528;21.204;2022-12-05T13:20:04;100540.75;;;3.21;100.00
22283;BME280;11310;51.528;21.204;2022-12-05T13:22:36;100543.34;;;3.19;100.00
22283;BME280;11310;51.528;21.204;2022-12-05T13:25:13;100543.34;;;3.19;100.00
22283;BME280;11310;51.528;21.204;2022-12-05T13:27:52;100539.03;;;3.20;100.00
22283;BME280;11310;51.528;21.204;2022-12-05T13:30:24;100543.34;;;3.21;100.00